Main page
METAR-TAF:

METAR-TAF

Airports :

Defiance Memorial Airport

Defiance, Ohio, United States

latitude: 41-20-11N, longitude: 084-25-46W, elevation: 705 ft

Current weather observation

The report was made 27 minutes ago, at 19:53 UTC
Wind 5 mph from the Southeast
Temperature 45°F
Humidity 42%
Pressure 30.22 in. Hg
Visibility: 10 miles
Overcast at a height of 11000 ft

METAR: KDFI 011953Z AUTO 14004KT 10SM OVC110 07/M05 A3022 RMK AO2 SLP238 T00671050

Time: 15:20 (20:20 UTC)


TAF: missing

Weather observations and forecasts of more than 4000 airports (METAR and TAF reports).

The available stations are represented by yellow and red dots on the map.

Hover mouse over dot to see the name of the station.

Then click to see weather observations and forecasts.

To change the map : click on the green buttons with a black cross to zoom in, on the green button with a dash to zoom out, or on the green arrows for adjacent maps.


METAR-TAF: